Nearby METAR Reports

 

CYXU - London Airport, Ontario, Canada
Distance from station: SSE 21km
Updated: 19/09/2018 09:00
Mostly cloudy
Mostly cloudy
 Wind from N
Wind: N 13 km/h
Temperature: 15°C
Dew Point: 13°C
Humidity: 88%
Barometer: 1018.6 hPa
Clouds: Mostly cloudy
Visibility: 24 km
Cloud details: Few Clouds 152 m
Mostly cloudy 7620 m
2018/09/19 13:00 CYXU 191300Z 01007KT 15SM FEW005 BKN250 15/13 A3008 RMK SF1CI6 SF TR SLP187
CXDI - Delhi Cs (aut), Ontario, Canada
Distance from station: SE 65km
Updated: 19/09/2018 09:00

 Wind from N
Wind: N 7 km/h
Temperature: 15°C
Dew Point: 12°C
Humidity: 82%
2018/09/19 13:00 CXDI 191300Z AUTO 36004KT 15/12 RMK AO1 SLP175 T01530123 51024
 
CYKF - Waterloo Well, Ontario, Canada
Distance from station: ENE 72km
Updated: 19/09/2018 09:00
Clear
Clear
 Wind from NNW
Wind: NNW 7 km/h
Temperature: 14°C
Dew Point: 12°C
Humidity: 88%
Barometer: 1018.3 hPa
Clouds: Clear
Visibility: 14 km
2018/09/19 13:00 CYKF 191300Z AUTO 34004KT 300V010 9SM CLR 14/12 A3007 RMK SLP184
CWGD - Goderich (autob), Ontario, Canada
Distance from station: NW 76km
Updated: 19/09/2018 09:00

 Wind from E
Wind: E 15 km/h
Temperature: 15°C
Dew Point: 13°C
Humidity: 88%
2018/09/19 13:00 CWGD 191300Z AUTO 08008KT 15/13 RMK AO1 SLP180 T01510129 50019
 
CZEL - Elora Rcs, Ontario, Canada
Distance from station: NE 81km
Updated: 19/09/2018 09:00

 Wind from N
Wind: N 9 km/h
Temperature: 13°C
Dew Point: 11°C
Humidity: 88%
2018/09/19 13:00 CZEL 191300Z AUTO 36005KT 13/11 RMK AO1 SLP185 T01340110 51022